Time;durP1;ratioP1;P1;durP2;ratioP2;P2;SDS_P1;SDS_P2;PMS_P1;PMS_P2;Temp;Humidity;BMP_temperature;BMP_pressure;BME280_temperature;BME280_humidity;BME280_pressure;Samples;Min_cycle;Max_cycle;Signal;HPM_P1;HPM_P2
2022/05/26 00:00:43;;;;;;;4.93;1.10;;;18.10;83.70;;;;;;2089752;28;20031;-70
2022/05/26 00:01:44;;;;;;;2.15;1.27;;;18.00;84.50;;;;;;2089424;28;20016;-69
2022/05/26 00:02:44;;;;;;;1.65;1.05;;;18.00;85.30;;;;;;2088086;28;20073;-70
2022/05/26 00:03:46;;;;;;;2.35;1.08;;;18.00;85.40;;;;;;2091568;28;20095;-70
2022/05/26 00:04:47;;;;;;;3.17;1.02;;;18.00;86.50;;;;;;2087397;28;20135;-70
2022/05/26 00:05:47;;;;;;;4.65;1.20;;;18.00;87.10;;;;;;2087046;28;20029;-69
2022/05/26 00:06:48;;;;;;;3.95;1.00;;;18.00;88.00;;;;;;2086275;28;20032;-69
2022/05/26 00:07:49;;;;;;;3.15;1.13;;;18.00;88.50;;;;;;2087219;28;20502;-69
2022/05/26 00:08:50;;;;;;;3.95;0.95;;;18.00;88.90;;;;;;2084458;28;20017;-69
2022/05/26 00:09:50;;;;;;;2.22;1.10;;;18.00;89.70;;;;;;2086781;28;20021;-69
2022/05/26 00:10:51;;;;;;;3.55;1.30;;;18.00;90.10;;;;;;2084576;28;20560;-70
2022/05/26 00:11:51;;;;;;;3.78;1.08;;;18.00;90.50;;;;;;2084228;28;20017;-69
2022/05/26 00:12:52;;;;;;;2.00;1.05;;;18.00;90.80;;;;;;2083669;28;20021;-69
2022/05/26 00:13:53;;;;;;;3.00;1.00;;;18.00;91.00;;;;;;2082218;28;20026;-69
2022/05/26 00:14:53;;;;;;;2.88;1.33;;;18.00;91.40;;;;;;2082656;28;20083;-69
2022/05/26 00:15:54;;;;;;;5.60;1.00;;;18.00;91.60;;;;;;2089257;28;20028;-69
2022/05/26 00:16:54;;;;;;;3.92;1.20;;;18.00;91.80;;;;;;2090771;28;20024;-69
2022/05/26 00:17:55;;;;;;;2.92;1.13;;;18.00;91.90;;;;;;2088818;28;20016;-69
2022/05/26 00:18:57;;;;;;;1.48;1.30;;;17.90;92.40;;;;;;2088681;28;20033;-70
2022/05/26 00:19:58;;;;;;;2.80;1.35;;;17.90;92.50;;;;;;2089409;28;20032;-69
2022/05/26 00:20:59;;;;;;;6.15;1.50;;;17.90;92.70;;;;;;2086598;28;20017;-69
2022/05/26 00:22:00;;;;;;;2.30;1.38;;;17.90;93.00;;;;;;2086400;28;20036;-69
2022/05/26 00:23:00;;;;;;;1.58;0.98;;;17.90;93.30;;;;;;2083313;28;20040;-68
2022/05/26 00:24:01;;;;;;;2.53;1.40;;;17.90;93.50;;;;;;2084599;28;20029;-68
2022/05/26 00:25:03;;;;;;;7.45;1.30;;;17.90;93.60;;;;;;2091261;28;20499;-69
2022/05/26 00:26:03;;;;;;;1.10;1.00;;;17.90;93.80;;;;;;2088162;28;20362;-69
2022/05/26 00:27:04;;;;;;;3.90;1.15;;;17.90;94.10;;;;;;2089515;28;20032;-69
2022/05/26 00:28:05;;;;;;;1.70;1.05;;;17.90;94.10;;;;;;2083337;28;20051;-69
2022/05/26 00:29:06;;;;;;;3.58;1.40;;;17.90;94.00;;;;;;2088039;28;20044;-69
2022/05/26 00:30:07;;;;;;;3.33;1.27;;;17.90;94.10;;;;;;2088276;28;20027;-69
2022/05/26 00:31:08;;;;;;;2.88;1.42;;;17.90;94.20;;;;;;2084410;28;20116;-69
2022/05/26 00:32:08;;;;;;;2.30;1.13;;;17.90;94.00;;;;;;2091423;28;20472;-69
2022/05/26 00:33:09;;;;;;;2.80;1.30;;;17.90;94.10;;;;;;2091466;28;20038;-69
2022/05/26 00:34:10;;;;;;;2.90;1.38;;;17.90;94.10;;;;;;2089522;28;20036;-69
2022/05/26 00:35:11;;;;;;;3.13;1.42;;;17.90;94.30;;;;;;2089207;28;20494;-69
2022/05/26 00:36:14;;;;;;;2.00;1.30;;;17.90;94.30;;;;;;2089056;28;20032;-68
2022/05/26 00:37:14;;;;;;;3.83;1.60;;;17.90;94.50;;;;;;2086637;28;20032;-69
2022/05/26 00:38:16;;;;;;;4.35;1.48;;;17.90;94.50;;;;;;2086929;28;20400;-69
2022/05/26 00:39:22;;;;;;;2.58;1.30;;;17.90;94.70;;;;;;2084936;28;20036;-69
2022/05/26 00:40:22;;;;;;;7.50;1.60;;;17.90;95.10;;;;;;2085605;28;20055;-69
2022/05/26 00:41:23;;;;;;;2.95;1.75;;;17.90;94.80;;;;;;2084715;28;20064;-69
2022/05/26 00:42:23;;;;;;;3.53;1.50;;;17.90;95.00;;;;;;2089940;28;20131;-69
2022/05/26 00:43:24;;;;;;;5.15;1.50;;;17.90;95.30;;;;;;2091211;28;20032;-68
2022/05/26 00:44:24;;;;;;;3.53;1.40;;;17.90;95.40;;;;;;2087011;28;20078;-68
2022/05/26 00:45:33;;;;;;;3.65;1.60;;;17.90;95.40;;;;;;2087615;28;20021;-69
2022/05/26 00:46:54;;;;;;;5.18;1.50;;;17.90;95.90;;;;;;2085540;28;20029;-68
2022/05/26 00:47:55;;;;;;;3.13;1.60;;;17.90;95.60;;;;;;2090161;28;20017;-69
2022/05/26 00:48:59;;;;;;;2.13;1.40;;;17.80;95.80;;;;;;2087986;28;20059;-69
2022/05/26 00:50:07;;;;;;;2.55;1.50;;;17.90;95.90;;;;;;2086413;28;20035;-69
2022/05/26 00:51:10;;;;;;;3.85;1.25;;;17.90;96.20;;;;;;2086823;28;20024;-69
2022/05/26 00:52:14;;;;;;;4.65;1.38;;;17.90;96.00;;;;;;2082579;28;20070;-69
2022/05/26 00:53:20;;;;;;;4.35;1.60;;;17.90;96.30;;;;;;2081374;28;20041;-69
2022/05/26 00:54:24;;;;;;;6.97;1.60;;;17.90;96.40;;;;;;2085575;28;20029;-69
2022/05/26 00:55:31;;;;;;;2.88;1.50;;;17.80;96.60;;;;;;2087841;28;20115;-69
2022/05/26 00:56:48;;;;;;;6.22;1.40;;;17.90;96.90;;;;;;2091856;28;20021;-69
2022/05/26 00:57:53;;;;;;;3.95;1.48;;;17.80;97.30;;;;;;2089139;28;20383;-69
2022/05/26 00:58:59;;;;;;;3.42;1.38;;;17.80;96.80;;;;;;2090640;28;20098;-69
2022/05/26 01:00:14;;;;;;;1.92;1.30;;;17.80;97.20;;;;;;2086599;28;20079;-69
2022/05/26 01:01:15;;;;;;;4.32;1.38;;;17.80;97.60;;;;;;2086949;28;20025;-69
2022/05/26 01:02:20;;;;;;;6.25;1.63;;;17.70;96.90;;;;;;2083887;28;20033;-70
2022/05/26 01:03:31;;;;;;;6.43;1.73;;;17.80;97.00;;;;;;2081980;28;20030;-70
2022/05/26 01:04:40;;;;;;;2.75;1.40;;;17.80;97.40;;;;;;2081002;28;20494;-70
2022/05/26 01:05:53;;;;;;;3.92;1.45;;;17.70;97.60;;;;;;2081446;28;20037;-70
2022/05/26 01:07:27;;;;;;;3.17;1.50;;;17.70;97.60;;;;;;2080869;28;20021;-70
2022/05/26 01:08:49;;;;;;;2.35;1.08;;;17.70;98.40;;;;;;2085394;28;20546;-70
2022/05/26 01:09:50;;;;;;;3.08;1.05;;;17.70;98.90;;;;;;2083377;28;20053;-70
2022/05/26 01:10:52;;;;;;;4.55;1.35;;;17.70;97.80;;;;;;2083469;28;20041;-70
2022/05/26 01:11:53;;;;;;;2.35;0.98;;;17.70;98.00;;;;;;2085544;28;20021;-70
2022/05/26 01:12:54;;;;;;;1.55;1.10;;;17.70;98.00;;;;;;2086223;28;20060;-70
2022/05/26 01:14:02;;;;;;;1.92;1.10;;;17.70;97.90;;;;;;2083591;28;20091;-70
2022/05/26 01:15:07;;;;;;;1.67;1.23;;;17.70;98.60;;;;;;2088511;28;20404;-70
2022/05/26 01:16:31;;;;;;;3.47;1.02;;;17.70;98.40;;;;;;2086814;28;20043;-70
2022/05/26 01:17:34;;;;;;;3.45;1.20;;;17.70;99.30;;;;;;2086490;28;20069;-70
2022/05/26 01:18:52;;;;;;;6.10;1.42;;;17.70;98.30;;;;;;2088828;28;20036;-69
2022/05/26 01:20:14;;;;;;;2.70;1.42;;;17.70;99.70;;;;;;2089631;28;20109;-70
2022/05/26 01:21:36;;;;;;;4.05;1.55;;;17.70;99.40;;;;;;2087526;28;20443;-69
2022/05/26 01:22:50;;;;;;;1.23;1.10;;;17.70;98.70;;;;;;2087416;28;20084;-70
2022/05/26 01:24:06;;;;;;;3.25;1.30;;;17.70;99.70;;;;;;2086228;28;20056;-70
2022/05/26 01:25:24;;;;;;;3.63;1.40;;;17.70;98.80;;;;;;2086421;28;20021;-70
2022/05/26 01:26:38;;;;;;;2.67;1.08;;;17.70;99.90;;;;;;2083754;28;20112;-70
2022/05/26 01:27:44;;;;;;;3.88;1.35;;;17.70;99.90;;;;;;2086541;28;20370;-70
2022/05/26 01:29:06;;;;;;;2.35;1.20;;;17.60;99.70;;;;;;2088414;28;20020;-69
2022/05/26 01:30:25;;;;;;;2.05;1.17;;;17.70;99.90;;;;;;2089382;28;20083;-69
2022/05/26 01:31:43;;;;;;;8.20;1.55;;;17.60;99.90;;;;;;2082138;28;20400;-69
2022/05/26 01:33:02;;;;;;;4.70;1.42;;;17.70;99.90;;;;;;2086862;28;20025;-69
2022/05/26 01:34:10;;;;;;;2.88;1.25;;;17.60;99.90;;;;;;2086049;28;20358;-69
2022/05/26 01:35:19;;;;;;;3.88;1.38;;;17.60;99.90;;;;;;2092255;28;20108;-70
2022/05/26 01:36:42;;;;;;;1.45;1.20;;;17.60;99.90;;;;;;2089085;28;20028;-69
2022/05/26 01:38:05;;;;;;;4.43;1.60;;;17.60;99.90;;;;;;2086424;28;20552;-70
2022/05/26 01:39:47;;;;;;;2.25;1.63;;;17.60;99.90;;;;;;2085369;28;20025;-70
2022/05/26 01:41:08;;;;;;;6.15;2.03;;;17.60;99.90;;;;;;2071560;28;20081;-69
2022/05/26 01:42:30;;;;;;;4.70;1.85;;;17.50;99.90;;;;;;2086880;28;20029;-70
2022/05/26 01:43:41;;;;;;;4.43;2.00;;;17.50;99.90;;;;;;2086109;28;20530;-69
2022/05/26 01:45:00;;;;;;;4.55;1.80;;;17.50;99.90;;;;;;2090348;28;20107;-70
2022/05/26 01:46:20;;;;;;;3.70;1.73;;;17.60;99.90;;;;;;2084415;28;20035;-69
2022/05/26 01:47:39;;;;;;;2.80;1.65;;;17.60;99.90;;;;;;2082612;28;20056;-70
2022/05/26 01:48:48;;;;;;;3.40;1.70;;;17.50;99.90;;;;;;2085079;28;20057;-69
2022/05/26 01:50:21;;;;;;;2.95;1.90;;;17.50;99.90;;;;;;2084228;28;20012;-70
2022/05/26 01:51:33;;;;;;;1.75;1.55;;;17.50;99.90;;;;;;2086755;28;20504;-69
2022/05/26 01:52:42;;;;;;;5.25;2.38;;;17.60;99.90;;;;;;2082672;28;20105;-70
2022/05/26 01:53:43;;;;;;;3.63;2.03;;;17.50;99.90;;;;;;2084430;28;20030;-69
2022/05/26 01:55:11;;;;;;;2.83;1.75;;;17.60;99.90;;;;;;2090534;28;20673;-69
2022/05/26 01:56:50;;;;;;;2.97;1.67;;;17.60;99.90;;;;;;2086998;28;20021;-70
2022/05/26 01:57:56;;;;;;;4.15;1.55;;;17.50;99.90;;;;;;2079403;28;20079;-70
2022/05/26 01:59:08;;;;;;;4.30;2.35;;;17.50;99.90;;;;;;2088976;28;20062;-70
2022/05/26 02:00:12;;;;;;;3.38;1.73;;;17.50;99.90;;;;;;2088600;28;20108;-69
2022/05/26 02:01:23;;;;;;;9.68;1.90;;;17.50;99.90;;;;;;2084102;28;20545;-70
2022/05/26 02:02:31;;;;;;;3.58;1.98;;;17.50;99.90;;;;;;2082281;28;20091;-69
2022/05/26 02:03:34;;;;;;;2.47;1.83;;;17.50;99.90;;;;;;2082824;28;20022;-69
2022/05/26 02:04:40;;;;;;;2.13;1.92;;;17.50;99.90;;;;;;2084206;28;20044;-69
2022/05/26 02:05:45;;;;;;;2.97;1.88;;;17.50;99.90;;;;;;2083566;28;20037;-69
2022/05/26 02:06:52;;;;;;;2.28;1.90;;;17.60;99.90;;;;;;2084703;28;20017;-69
2022/05/26 02:08:06;;;;;;;4.32;1.80;;;17.60;99.90;;;;;;2091157;28;20027;-69
2022/05/26 02:09:13;;;;;;;2.60;2.00;;;17.60;99.90;;;;;;2089502;28;20025;-69
2022/05/26 02:10:21;;;;;;;6.82;2.55;;;17.60;99.90;;;;;;2084192;28;20036;-69
2022/05/26 02:11:23;;;;;;;6.13;2.67;;;17.60;99.90;;;;;;2086045;28;20094;-69
2022/05/26 02:12:36;;;;;;;4.70;2.42;;;17.60;99.90;;;;;;2086641;28;20116;-69
2022/05/26 02:13:42;;;;;;;5.45;2.00;;;17.60;99.90;;;;;;2083453;28;20025;-69
2022/05/26 02:14:49;;;;;;;3.65;1.95;;;17.60;99.90;;;;;;2086432;28;20028;-69
2022/05/26 02:15:56;;;;;;;3.50;1.90;;;17.60;99.90;;;;;;2087727;28;20016;-70
2022/05/26 02:17:10;;;;;;;4.68;2.63;;;17.60;99.90;;;;;;2088774;28;20017;-70
2022/05/26 02:18:24;;;;;;;5.88;2.47;;;17.70;99.90;;;;;;2086102;28;20017;-70
2022/05/26 02:19:36;;;;;;;4.28;2.03;;;17.70;99.90;;;;;;2080306;28;20036;-69
2022/05/26 02:20:53;;;;;;;3.47;1.88;;;17.70;99.90;;;;;;2083945;28;20075;-70
2022/05/26 02:22:06;;;;;;;5.10;2.10;;;17.70;99.90;;;;;;2092464;28;20100;-70
2022/05/26 02:23:12;;;;;;;3.30;1.75;;;17.70;99.90;;;;;;2086727;28;20025;-69
2022/05/26 02:24:32;;;;;;;5.13;1.92;;;17.60;99.90;;;;;;2088305;28;20087;-70
2022/05/26 02:25:33;;;;;;;2.88;1.88;;;17.60;99.90;;;;;;2087173;28;20025;-70
2022/05/26 02:30:07;;;;;;;1.60;1.30;;;17.60;99.90;;;;;;2086596;28;20029;-70
2022/05/26 02:31:07;;;;;;;6.03;1.55;;;17.50;99.90;;;;;;2086197;28;20025;-70
2022/05/26 02:32:10;;;;;;;1.77;1.60;;;17.50;99.90;;;;;;2083821;28;20029;-70
2022/05/26 02:33:14;;;;;;;3.45;1.33;;;17.60;99.90;;;;;;2086086;28;20042;-70
2022/05/26 02:34:16;;;;;;;4.72;1.48;;;17.60;99.90;;;;;;2089049;28;20451;-70
2022/05/26 02:35:22;;;;;;;1.92;1.38;;;17.60;99.90;;;;;;2086588;28;20412;-70
2022/05/26 02:36:24;;;;;;;2.53;1.42;;;17.60;99.90;;;;;;2085490;28;20538;-70
2022/05/26 02:37:26;;;;;;;4.05;1.30;;;17.60;99.90;;;;;;2082117;28;20460;-70
2022/05/26 02:38:27;;;;;;;1.83;1.20;;;17.60;99.90;;;;;;2086576;28;20021;-70
2022/05/26 02:39:28;;;;;;;3.83;1.95;;;17.60;99.90;;;;;;2083783;28;20068;-70
2022/05/26 02:40:29;;;;;;;1.58;1.13;;;17.60;99.90;;;;;;2086089;28;20029;-69
2022/05/26 02:41:31;;;;;;;2.70;1.23;;;17.60;99.90;;;;;;2087069;28;20032;-70
2022/05/26 02:42:33;;;;;;;2.95;1.40;;;17.60;99.90;;;;;;2084517;28;20037;-69
2022/05/26 02:43:34;;;;;;;5.18;1.55;;;17.60;99.90;;;;;;2086896;28;20025;-70
2022/05/26 02:44:35;;;;;;;3.95;1.33;;;17.60;99.90;;;;;;2085449;28;20021;-70
2022/05/26 02:45:48;;;;;;;2.78;1.33;;;17.60;99.90;;;;;;2086718;28;20103;-70
2022/05/26 02:47:07;;;;;;;2.05;1.48;;;17.60;99.90;;;;;;2090443;28;20017;-70
2022/05/26 02:48:16;;;;;;;5.88;1.42;;;17.50;99.90;;;;;;2088824;28;20439;-69
2022/05/26 02:49:25;;;;;;;2.67;1.58;;;17.50;99.90;;;;;;2083394;28;20393;-70
2022/05/26 02:50:51;;;;;;;5.20;1.35;;;17.50;99.90;;;;;;2087214;28;20094;-69
2022/05/26 02:52:04;;;;;;;3.00;1.40;;;17.50;99.90;;;;;;2084020;28;20071;-70
2022/05/26 02:53:30;;;;;;;1.73;1.30;;;17.40;99.90;;;;;;2080848;28;20032;-69
2022/05/26 02:54:33;;;;;;;6.32;1.42;;;17.40;99.90;;;;;;2086689;28;20056;-69
2022/05/26 02:55:39;;;;;;;3.47;1.63;;;17.40;99.90;;;;;;2087755;28;20021;-70
2022/05/26 02:56:56;;;;;;;2.22;1.75;;;17.40;99.90;;;;;;2084967;28;20032;-69
2022/05/26 02:58:28;;;;;;;6.13;1.77;;;17.40;99.90;;;;;;2086836;28;20021;-70
2022/05/26 02:59:52;;;;;;;2.83;1.55;;;17.40;99.90;;;;;;2080618;28;20460;-69
2022/05/26 03:00:58;;;;;;;4.20;1.50;;;17.40;99.90;;;;;;2084746;28;20534;-69
2022/05/26 03:02:05;;;;;;;3.42;1.73;;;17.40;99.90;;;;;;2077903;28;20034;-69
2022/05/26 03:03:19;;;;;;;2.30;1.38;;;17.40;99.90;;;;;;2089899;28;20170;-70
2022/05/26 03:04:30;;;;;;;2.70;1.50;;;17.40;99.90;;;;;;2089208;28;20473;-69
2022/05/26 03:05:43;;;;;;;4.10;1.75;;;17.40;99.90;;;;;;2083528;28;20071;-69
2022/05/26 03:06:49;;;;;;;3.53;1.60;;;17.40;99.90;;;;;;2085091;28;20074;-70
2022/05/26 03:07:54;;;;;;;4.20;1.50;;;17.40;99.90;;;;;;2085433;28;20017;-70
2022/05/26 03:08:55;;;;;;;3.20;1.58;;;17.40;99.90;;;;;;2084361;28;20021;-70
2022/05/26 03:09:56;;;;;;;3.40;1.70;;;17.40;99.90;;;;;;2084828;28;20021;-69
2022/05/26 03:11:09;;;;;;;3.67;1.60;;;17.40;99.90;;;;;;2088415;28;20040;-69
2022/05/26 03:12:22;;;;;;;4.63;1.67;;;17.40;99.90;;;;;;2089453;28;20017;-69
2022/05/26 03:13:25;;;;;;;4.65;1.90;;;17.40;99.90;;;;;;2081737;28;20092;-69
2022/05/26 03:14:26;;;;;;;3.63;1.77;;;17.40;99.90;;;;;;2084197;28;20021;-69
2022/05/26 03:15:29;;;;;;;3.45;1.95;;;17.50;99.90;;;;;;2080882;28;20056;-70
2022/05/26 03:16:29;;;;;;;5.50;1.98;;;17.50;99.90;;;;;;2080907;28;20108;-70
2022/05/26 03:17:30;;;;;;;4.72;1.75;;;17.50;99.90;;;;;;2081686;28;20033;-69
2022/05/26 03:18:30;;;;;;;5.68;1.65;;;17.40;99.90;;;;;;2084726;28;20116;-69
2022/05/26 03:19:32;;;;;;;4.80;1.77;;;17.40;99.90;;;;;;2088287;28;20029;-69
2022/05/26 03:20:32;;;;;;;6.68;1.90;;;17.40;99.90;;;;;;2087113;28;20095;-69
2022/05/26 03:21:33;;;;;;;4.03;2.10;;;17.40;99.90;;;;;;2083551;28;20592;-70
2022/05/26 03:22:34;;;;;;;4.90;2.00;;;17.40;99.90;;;;;;2084931;28;20424;-70
2022/05/26 03:23:36;;;;;;;3.28;1.90;;;17.40;99.90;;;;;;2082536;28;20055;-70
2022/05/26 03:24:37;;;;;;;3.25;1.75;;;17.40;99.90;;;;;;2087227;28;20025;-70
2022/05/26 03:25:37;;;;;;;2.03;1.58;;;17.40;99.90;;;;;;2084749;28;20034;-70
2022/05/26 03:26:38;;;;;;;3.78;1.65;;;17.50;99.90;;;;;;2085788;28;20041;-70
2022/05/26 03:27:39;;;;;;;6.38;2.00;;;17.50;99.90;;;;;;2091846;28;20109;-69
2022/05/26 03:28:40;;;;;;;7.10;2.28;;;17.50;99.90;;;;;;2086113;28;20381;-69
2022/05/26 03:29:40;;;;;;;4.35;1.70;;;17.50;99.90;;;;;;2084141;28;20073;-69
2022/05/26 03:30:41;;;;;;;4.70;1.80;;;17.50;99.90;;;;;;2083953;28;20104;-70
2022/05/26 03:31:42;;;;;;;6.25;2.28;;;17.50;99.90;;;;;;2086317;28;20020;-70
2022/05/26 03:32:42;;;;;;;10.65;8.15;;;17.50;99.90;;;;;;2088741;28;20031;-70
2022/05/26 03:41:38;;;;;;;5.57;2.45;;;17.40;99.90;;;;;;2088995;28;20037;-70
2022/05/26 03:42:38;;;;;;;4.88;2.33;;;17.40;99.90;;;;;;2092007;28;20461;-69
2022/05/26 03:43:46;;;;;;;5.28;2.22;;;17.40;99.90;;;;;;2091046;28;20021;-69
2022/05/26 03:44:47;;;;;;;5.40;2.53;;;17.40;99.90;;;;;;2084782;28;20119;-70
2022/05/26 03:45:48;;;;;;;3.95;2.17;;;17.40;99.90;;;;;;2089588;28;20027;-70
2022/05/26 03:46:49;;;;;;;2.70;2.17;;;17.40;99.90;;;;;;2087952;28;20032;-70
2022/05/26 03:47:50;;;;;;;2.88;2.05;;;17.40;99.90;;;;;;2087639;28;20108;-70
2022/05/26 03:48:51;;;;;;;4.18;2.00;;;17.40;99.90;;;;;;2090652;28;20013;-70
2022/05/26 03:49:51;;;;;;;3.75;2.10;;;17.40;99.90;;;;;;2094135;28;20033;-69
2022/05/26 03:50:52;;;;;;;5.43;2.40;;;17.50;99.90;;;;;;2088524;28;20025;-69
2022/05/26 03:51:53;;;;;;;2.28;2.03;;;17.50;99.90;;;;;;2087522;28;20064;-69
2022/05/26 03:52:54;;;;;;;5.55;2.67;;;17.50;99.90;;;;;;2084355;28;20108;-69
2022/05/26 03:53:54;;;;;;;4.00;2.10;;;17.50;99.90;;;;;;2084251;28;20025;-69
2022/05/26 03:54:55;;;;;;;3.85;2.13;;;17.50;99.90;;;;;;2083196;28;20033;-69
2022/05/26 03:55:55;;;;;;;3.47;1.80;;;17.50;99.90;;;;;;2082237;28;20075;-69
2022/05/26 03:56:57;;;;;;;4.45;2.50;;;17.40;99.90;;;;;;2085839;28;20075;-69
2022/05/26 03:57:59;;;;;;;3.42;1.85;;;17.50;99.90;;;;;;2086362;28;20044;-69
2022/05/26 03:59:00;;;;;;;5.07;2.75;;;17.40;99.90;;;;;;2085290;28;20085;-69
2022/05/26 04:00:00;;;;;;;3.97;2.20;;;17.50;99.90;;;;;;2088652;28;20025;-69
2022/05/26 04:01:03;;;;;;;4.18;2.22;;;17.50;99.90;;;;;;2090085;28;20032;-70
2022/05/26 04:02:04;;;;;;;4.53;2.10;;;17.50;99.90;;;;;;2084207;28;20063;-70
2022/05/26 04:03:04;;;;;;;4.45;2.40;;;17.50;99.90;;;;;;2088005;28;20069;-70
2022/05/26 04:04:05;;;;;;;2.67;2.25;;;17.50;99.90;;;;;;2087524;28;20112;-70
2022/05/26 04:05:07;;;;;;;5.18;2.20;;;17.50;99.90;;;;;;2086619;28;20522;-70
2022/05/26 04:06:08;;;;;;;4.35;2.20;;;17.50;99.90;;;;;;2089492;28;20136;-69
2022/05/26 04:07:08;;;;;;;6.05;2.47;;;17.50;99.90;;;;;;2092580;28;20075;-70
2022/05/26 04:08:09;;;;;;;6.72;2.42;;;17.50;99.90;;;;;;2086444;28;20112;-70
2022/05/26 04:09:10;;;;;;;9.57;3.00;;;17.50;99.90;;;;;;2085252;28;20626;-70
2022/05/26 04:10:12;;;;;;;4.10;2.67;;;17.50;99.90;;;;;;2085334;28;20473;-69
2022/05/26 04:11:12;;;;;;;4.18;2.60;;;17.50;99.90;;;;;;2087360;28;20029;-69
2022/05/26 04:12:13;;;;;;;5.85;2.90;;;17.50;99.90;;;;;;2084307;28;20033;-69
2022/05/26 04:13:14;;;;;;;6.25;2.58;;;17.40;99.90;;;;;;2085719;28;20584;-69
2022/05/26 04:14:15;;;;;;;6.03;3.15;;;17.40;99.90;;;;;;2085084;28;20431;-69
2022/05/26 04:15:17;;;;;;;4.60;2.80;;;17.40;99.90;;;;;;2084805;28;20536;-70
2022/05/26 04:16:19;;;;;;;4.63;2.40;;;17.40;99.90;;;;;;2086401;28;20102;-70
2022/05/26 04:17:20;;;;;;;3.60;2.53;;;17.40;99.90;;;;;;2089061;28;20028;-70
2022/05/26 04:18:20;;;;;;;3.92;2.45;;;17.40;99.90;;;;;;2088911;28;20484;-71
2022/05/26 04:19:21;;;;;;;6.38;2.95;;;17.40;99.90;;;;;;2090963;28;20037;-70
2022/05/26 04:20:22;;;;;;;4.63;2.90;;;17.40;99.90;;;;;;2087710;28;20037;-70
2022/05/26 04:21:23;;;;;;;5.07;2.95;;;17.40;99.90;;;;;;2089700;28;20025;-70
2022/05/26 04:22:23;;;;;;;3.72;2.95;;;17.40;99.90;;;;;;2084950;28;20037;-69
2022/05/26 04:23:24;;;;;;;6.13;3.00;;;17.40;99.90;;;;;;2086724;28;20017;-70
2022/05/26 04:24:25;;;;;;;6.93;2.95;;;17.30;99.90;;;;;;2091507;28;20060;-70
2022/05/26 04:25:26;;;;;;;4.28;2.70;;;17.30;99.90;;;;;;2089394;28;20029;-70
2022/05/26 04:26:26;;;;;;;3.97;3.20;;;17.40;99.90;;;;;;2086479;28;20033;-70
2022/05/26 04:27:30;;;;;;;7.97;3.35;;;17.40;99.90;;;;;;2087924;28;20052;-70
2022/05/26 04:28:31;;;;;;;5.05;3.05;;;17.40;99.90;;;;;;2088163;28;20032;-70
2022/05/26 04:29:33;;;;;;;8.45;3.10;;;17.40;99.90;;;;;;2088323;28;20032;-70
2022/05/26 04:30:34;;;;;;;5.00;3.30;;;17.40;99.90;;;;;;2086746;28;20026;-69
2022/05/26 04:31:34;;;;;;;6.35;3.00;;;17.40;99.90;;;;;;2086809;28;20030;-70
2022/05/26 04:32:35;;;;;;;7.15;2.80;;;17.40;99.90;;;;;;2091012;28;20033;-70
2022/05/26 04:33:36;;;;;;;3.50;2.72;;;17.40;99.90;;;;;;2089389;28;20032;-70
2022/05/26 04:34:37;;;;;;;6.15;2.97;;;17.40;99.90;;;;;;2089660;28;20519;-70
2022/05/26 04:35:38;;;;;;;6.50;2.97;;;17.40;99.90;;;;;;2085331;28;20380;-69
2022/05/26 04:36:39;;;;;;;6.07;3.00;;;17.40;99.90;;;;;;2088858;28;20051;-69
2022/05/26 04:37:40;;;;;;;5.18;3.05;;;17.40;99.90;;;;;;2090068;28;20030;-70
2022/05/26 04:38:40;;;;;;;6.60;2.72;;;17.40;99.90;;;;;;2086557;28;20917;-70
2022/05/26 04:39:41;;;;;;;4.18;2.20;;;17.40;99.90;;;;;;2086623;28;20028;-70
2022/05/26 04:40:43;;;;;;;6.53;2.85;;;17.40;99.90;;;;;;2085933;28;20043;-70
2022/05/26 04:41:44;;;;;;;5.55;2.80;;;17.40;99.90;;;;;;2085405;28;20055;-70
2022/05/26 04:42:45;;;;;;;5.22;2.80;;;17.40;99.90;;;;;;2086824;28;20493;-70
2022/05/26 04:43:45;;;;;;;4.50;2.70;;;17.40;99.90;;;;;;2085021;28;20108;-70
2022/05/26 04:44:46;;;;;;;5.63;3.28;;;17.40;99.90;;;;;;2088412;28;20024;-70
2022/05/26 04:45:46;;;;;;;4.80;2.78;;;17.40;99.90;;;;;;2091751;28;20016;-70
2022/05/26 04:46:47;;;;;;;6.30;3.08;;;17.40;99.90;;;;;;2090672;28;20028;-70
2022/05/26 04:47:48;;;;;;;4.43;2.75;;;17.40;99.90;;;;;;2087765;28;20029;-70
2022/05/26 04:48:48;;;;;;;5.65;2.90;;;17.40;99.90;;;;;;2086036;28;20024;-70
2022/05/26 04:49:49;;;;;;;5.03;2.90;;;17.40;99.90;;;;;;2088465;28;20118;-70
2022/05/26 04:50:50;;;;;;;5.28;3.03;;;17.40;99.90;;;;;;2087424;28;20021;-70
2022/05/26 04:51:51;;;;;;;5.97;3.10;;;17.40;99.90;;;;;;2082356;28;20429;-70
2022/05/26 04:52:52;;;;;;;5.85;2.95;;;17.40;99.90;;;;;;2080816;28;20033;-70
2022/05/26 04:53:54;;;;;;;5.88;3.20;;;17.40;99.90;;;;;;2081522;28;20025;-70
2022/05/26 04:54:54;;;;;;;6.10;3.38;;;17.40;99.90;;;;;;2085152;28;20466;-70
2022/05/26 04:55:55;;;;;;;5.18;3.53;;;17.40;99.90;;;;;;2086470;28;20060;-70
2022/05/26 04:57:00;;;;;;;4.65;3.33;;;17.30;99.90;;;;;;2083342;28;20021;-70
2022/05/26 04:58:00;;;;;;;3.38;3.00;;;17.30;99.90;;;;;;2086626;28;20116;-70
2022/05/26 04:59:01;;;;;;;6.47;3.55;;;17.30;99.90;;;;;;2087493;28;20031;-70
2022/05/26 05:00:05;;;;;;;4.75;3.25;;;17.40;99.90;;;;;;2086898;28;20079;-70
2022/05/26 05:01:15;;;;;;;6.30;3.88;;;17.40;99.90;;;;;;2090954;28;20094;-70
2022/05/26 05:02:17;;;;;;;;;;;17.40;99.90;;;;;;2086300;28;20028;-70
2022/05/26 05:03:18;;;;;;;5.75;4.15;;;17.30;99.90;;;;;;2083477;28;19913;-70
2022/05/26 05:04:22;;;;;;;6.28;4.18;;;17.30;99.90;;;;;;2086610;28;20637;-70
2022/05/26 05:05:23;;;;;;;7.95;4.40;;;17.30;99.90;;;;;;2082663;28;20029;-70
2022/05/26 05:06:24;;;;;;;5.25;4.25;;;17.30;99.90;;;;;;2086608;28;20033;-70
2022/05/26 05:07:26;;;;;;;4.07;3.75;;;17.30;99.90;;;;;;2081611;28;20025;-70
2022/05/26 05:08:26;;;;;;;8.02;5.03;;;17.30;99.90;;;;;;2084922;28;20076;-70
2022/05/26 05:09:27;;;;;;;8.25;5.30;;;17.30;99.90;;;;;;2085268;28;20113;-70
2022/05/26 05:10:27;;;;;;;9.73;5.07;;;17.30;99.90;;;;;;2085630;28;20083;-70
2022/05/26 05:11:29;;;;;;;8.40;4.70;;;17.30;99.90;;;;;;2090686;28;20026;-70
2022/05/26 05:12:30;;;;;;;7.10;4.68;;;17.30;99.90;;;;;;2089030;28;20108;-70
2022/05/26 05:13:32;;;;;;;7.05;4.95;;;17.30;99.90;;;;;;2084797;28;20022;-70
2022/05/26 05:14:38;;;;;;;6.88;5.30;;;17.30;99.90;;;;;;2085481;28;20500;-70
2022/05/26 05:15:45;;;;;;;8.00;5.10;;;17.30;99.90;;;;;;2086167;28;20033;-70
2022/05/26 05:16:47;;;;;;;8.57;5.20;;;17.30;99.90;;;;;;2090481;28;20013;-70
2022/05/26 05:17:47;;;;;;;7.40;5.75;;;17.30;99.90;;;;;;2089493;28;20062;-70
2022/05/26 05:18:50;;;;;;;10.38;6.97;;;17.30;99.90;;;;;;2087402;28;20103;-70
2022/05/26 05:19:51;;;;;;;11.63;6.57;;;17.30;99.90;;;;;;2089345;28;20013;-70
2022/05/26 05:20:54;;;;;;;8.98;5.57;;;17.30;99.90;;;;;;2083278;28;20025;-70
2022/05/26 05:22:05;;;;;;;11.63;6.05;;;17.30;99.90;;;;;;2076881;28;20021;-70
2022/05/26 05:23:11;;;;;;;9.05;5.75;;;17.30;99.90;;;;;;2082828;28;20021;-70
2022/05/26 05:24:23;;;;;;;12.20;6.30;;;17.30;99.90;;;;;;2091962;28;20028;-70
2022/05/26 05:25:28;;;;;;;12.20;6.97;;;17.30;99.90;;;;;;2085495;28;20021;-70
2022/05/26 05:26:34;;;;;;;10.07;6.70;;;17.30;99.90;;;;;;2086490;28;20041;-70
2022/05/26 05:27:48;;;;;;;12.63;6.82;;;17.30;99.90;;;;;;2089371;28;20490;-70
2022/05/26 05:28:54;;;;;;;8.35;6.50;;;17.30;99.90;;;;;;2087851;28;20699;-70
2022/05/26 05:29:58;;;;;;;9.57;6.55;;;17.30;99.90;;;;;;2090240;28;20476;-70
2022/05/26 05:31:08;;;;;;;11.10;7.15;;;17.30;99.90;;;;;;2086862;28;20033;-70
2022/05/26 05:32:17;;;;;;;9.75;6.80;;;17.30;99.90;;;;;;2087121;28;20071;-70
2022/05/26 05:33:30;;;;;;;10.15;6.45;;;17.40;99.90;;;;;;2088454;28;20370;-70
2022/05/26 05:34:38;;;;;;;12.23;7.00;;;17.30;99.90;;;;;;2086357;28;20035;-70
2022/05/26 05:35:52;;;;;;;12.75;7.00;;;17.40;99.90;;;;;;2085587;28;20029;-70
2022/05/26 05:36:53;;;;;;;8.15;6.15;;;17.40;99.90;;;;;;2089023;28;20409;-70
2022/05/26 05:37:55;;;;;;;9.55;6.25;;;17.40;99.90;;;;;;2084132;28;20370;-70
2022/05/26 05:38:58;;;;;;;9.55;6.88;;;17.40;99.90;;;;;;2083849;28;20453;-70
2022/05/26 05:39:59;;;;;;;11.35;7.35;;;17.40;99.90;;;;;;2086702;28;20124;-70
2022/05/26 05:41:01;;;;;;;10.35;6.80;;;17.40;99.90;;;;;;2088551;28;20029;-70
2022/05/26 05:42:04;;;;;;;10.98;7.45;;;17.40;99.90;;;;;;2085351;28;20033;-70
2022/05/26 05:43:04;;;;;;;12.68;8.30;;;17.50;99.90;;;;;;2089264;28;20056;-70
2022/05/26 05:44:06;;;;;;;11.73;7.32;;;17.40;99.90;;;;;;2082922;28;20053;-71
2022/05/26 05:45:07;;;;;;;12.35;8.27;;;17.40;99.90;;;;;;2084605;28;20512;-70
2022/05/26 05:46:08;;;;;;;11.57;8.05;;;17.40;99.90;;;;;;2086917;28;20048;-70
2022/05/26 05:47:08;;;;;;;14.35;8.27;;;17.50;99.90;;;;;;2085679;28;20104;-70
2022/05/26 05:48:09;;;;;;;11.70;7.18;;;17.50;99.90;;;;;;2091242;28;20025;-70
2022/05/26 05:49:10;;;;;;;12.07;8.55;;;17.50;99.90;;;;;;2083645;28;20033;-70
2022/05/26 05:50:10;;;;;;;11.50;7.93;;;17.50;99.90;;;;;;2087371;28;20061;-70
2022/05/26 05:51:12;;;;;;;15.45;8.88;;;17.50;99.90;;;;;;2083545;28;20025;-70